Terminal Aerodrome Forecast
Issued by NWS

Home | Current Version | Previous Version | Text Only | Print | Product List | Glossary On
Versions: 1 2 3 4 5 6 7 8 9 10 11 12 13 14 15
000
FTUS46 KSGX 111700
TAFSNA
TAF
KSNA 111729Z 1118/1218 24006KT P6SM SCT020
     FM112000 22009KT P6SM SKC
     FM120200 VRB04KT P6SM SCT015
     FM120900 VRB04KT P6SM OVC012
     FM121700 VRB04KT P6SM SCT018=

USA.gov is the U.S. government's official web portal to all federal, state and local government web resources and services.